Time;durP1;ratioP1;P1;durP2;ratioP2;P2;SDS_P1;SDS_P2;PMS_P1;PMS_P2;Temp;Humidity;BMP_temperature;BMP_pressure;BME280_temperature;BME280_humidity;BME280_pressure;Samples;Min_cycle;Max_cycle;Signal;HPM_P1;HPM_P2
2022/01/21 00:05:00;;;;;;;9.33;3.40;;;3.20;99.90;;;;;;10313824;28;20218;-76
2022/01/21 00:10:00;;;;;;;9.07;3.00;;;3.10;99.90;;;;;;10316290;28;20247;-77
2022/01/21 00:15:03;;;;;;;5.67;2.73;;;3.10;99.90;;;;;;10335475;28;20330;-77
2022/01/21 00:30:44;;;;;;;9.57;3.23;;;2.80;99.90;;;;;;10329920;28;20234;-77
2022/01/21 00:35:45;;;;;;;6.47;3.27;;;2.80;99.90;;;;;;10313111;28;20226;-77
2022/01/21 00:40:45;;;;;;;8.07;3.40;;;2.90;99.90;;;;;;10331260;28;20368;-76
2022/01/21 00:45:46;;;;;;;11.93;3.90;;;2.90;99.90;;;;;;10329484;28;20222;-77
2022/01/21 00:50:47;;;;;;;11.67;2.80;;;2.80;99.90;;;;;;10310349;28;20612;-76
2022/01/21 00:55:48;;;;;;;9.77;3.23;;;2.70;99.90;;;;;;10316804;28;20218;-77
2022/01/21 01:00:49;;;;;;;11.97;3.30;;;2.50;99.90;;;;;;10330899;28;20227;-76
2022/01/21 01:05:52;;;;;;;12.03;3.43;;;2.30;99.90;;;;;;10332295;28;20308;-76
2022/01/21 01:21:13;;;;;;;10.53;3.07;;;2.10;99.90;;;;;;10322150;28;20245;-77
2022/01/21 01:31:34;;;;;;;9.93;3.43;;;2.20;99.90;;;;;;10328176;28;20225;-76
2022/01/21 01:36:35;;;;;;;6.00;3.37;;;2.10;99.90;;;;;;10308420;28;20229;-76
2022/01/21 01:41:40;;;;;;;7.93;3.07;;;1.90;99.90;;;;;;10326535;28;20695;-75
2022/01/21 01:52:14;;;;;;;9.37;3.77;;;1.60;99.90;;;;;;10325618;28;20237;-75
2022/01/21 01:57:14;;;;;;;8.77;3.40;;;1.50;99.90;;;;;;10309143;28;20216;-75
2022/01/21 02:02:18;;;;;;;15.23;4.07;;;1.50;99.90;;;;;;10332121;28;20225;-75
2022/01/21 02:07:21;;;;;;;9.03;4.30;;;1.50;99.90;;;;;;10305633;28;20241;-74
2022/01/21 02:12:22;;;;;;;13.50;3.90;;;1.40;99.90;;;;;;10319786;28;20233;-76
2022/01/21 02:22:29;;;;;;;8.60;4.07;;;1.40;99.90;;;;;;10333068;28;20218;-76
2022/01/21 02:27:30;;;;;;;11.77;4.60;;;1.40;99.90;;;;;;10315999;28;20233;-77
2022/01/21 02:32:30;;;;;;;10.90;4.17;;;1.40;99.90;;;;;;10327624;28;20218;-75
2022/01/21 02:37:31;;;;;;;14.77;4.60;;;1.40;99.90;;;;;;10311168;28;20233;-76
2022/01/21 02:42:32;;;;;;;8.23;4.30;;;1.40;99.90;;;;;;10329840;28;20237;-75
2022/01/21 02:47:33;;;;;;;11.40;5.30;;;1.40;99.90;;;;;;10307974;28;20783;-76
2022/01/21 02:52:42;;;;;;;8.27;4.60;;;1.30;99.90;;;;;;10329780;28;20264;-77
2022/01/21 02:57:42;;;;;;;11.07;4.47;;;1.20;99.90;;;;;;10302115;28;20309;-76
2022/01/21 03:02:43;;;;;;;11.57;4.57;;;1.20;99.90;;;;;;10300526;28;20946;-77
2022/01/21 03:07:45;;;;;;;11.77;5.10;;;1.20;99.90;;;;;;10323912;28;20222;-77
2022/01/21 03:12:45;;;;;;;10.93;4.77;;;1.10;99.90;;;;;;10306134;28;20221;-76
2022/01/21 03:17:47;;;;;;;11.93;5.00;;;1.20;99.90;;;;;;10322379;28;20226;-78
2022/01/21 03:22:47;;;;;;;13.03;4.87;;;1.10;99.90;;;;;;10315350;28;20300;-77
2022/01/21 03:27:48;;;;;;;12.20;4.90;;;1.10;99.90;;;;;;10327385;28;20328;-77
2022/01/21 03:32:48;;;;;;;10.13;4.17;;;1.00;99.90;;;;;;10328848;28;20210;-76
2022/01/21 03:37:49;;;;;;;11.13;4.90;;;1.00;99.90;;;;;;10325238;28;20237;-75
2022/01/21 03:42:50;;;;;;;9.30;5.27;;;1.20;99.90;;;;;;10318751;28;20225;-75
2022/01/21 03:47:52;;;;;;;9.00;3.83;;;1.30;99.90;;;;;;10332050;28;20237;-75
2022/01/21 03:52:54;;;;;;;8.90;4.50;;;1.40;99.90;;;;;;10323565;28;20597;-75
2022/01/21 03:57:54;;;;;;;10.83;4.27;;;1.50;99.90;;;;;;10321547;28;20323;-75
2022/01/21 04:02:56;;;;;;;13.13;4.90;;;1.60;99.90;;;;;;10315610;28;20308;-75
2022/01/21 04:07:57;;;;;;;10.83;4.90;;;1.70;99.90;;;;;;10330408;28;20230;-76
2022/01/21 04:12:58;;;;;;;14.13;4.80;;;1.70;99.90;;;;;;10318088;28;20222;-75
2022/01/21 04:17:59;;;;;;;9.60;4.93;;;1.60;99.90;;;;;;10317801;28;20234;-75
2022/01/21 04:22:59;;;;;;;13.40;5.30;;;1.60;99.90;;;;;;10332616;28;20214;-76
2022/01/21 04:28:01;;;;;;;13.10;6.60;;;1.70;99.90;;;;;;10330518;28;20241;-76
2022/01/21 04:33:02;;;;;;;12.20;5.13;;;1.80;99.90;;;;;;10326895;28;20462;-76
2022/01/21 04:38:06;;;;;;;12.07;4.73;;;1.80;99.90;;;;;;10333134;28;20590;-76
2022/01/21 04:48:27;;;;;;;12.27;4.97;;;1.90;99.90;;;;;;10318186;28;20321;-76
2022/01/21 04:53:30;;;;;;;8.50;4.10;;;1.90;99.90;;;;;;10328615;28;20718;-75
2022/01/21 04:58:30;;;;;;;10.03;5.00;;;1.90;99.90;;;;;;10320752;28;20234;-75
2022/01/21 05:03:31;;;;;;;12.53;4.90;;;1.90;99.90;;;;;;10313380;28;20222;-76
2022/01/21 05:08:42;;;;;;;9.43;5.13;;;1.90;99.90;;;;;;10322952;28;20237;-75
2022/01/21 05:13:50;;;;;;;12.77;4.90;;;2.00;99.90;;;;;;10308624;28;20230;-76
2022/01/21 05:18:51;;;;;;;12.73;4.90;;;2.00;99.90;;;;;;10305837;28;20222;-77
2022/01/21 05:23:52;;;;;;;13.10;5.17;;;2.00;99.90;;;;;;10306589;28;20226;-76
2022/01/21 05:28:52;;;;;;;14.17;5.07;;;2.00;99.90;;;;;;10320936;28;20321;-77
2022/01/21 05:33:53;;;;;;;15.00;5.40;;;2.00;99.90;;;;;;10323596;28;20220;-75
2022/01/21 05:38:54;;;;;;;13.60;5.40;;;2.00;99.90;;;;;;10325212;28;20296;-74
2022/01/21 05:44:05;;;;;;;13.40;5.73;;;1.90;99.90;;;;;;10310695;28;20236;-75
2022/01/21 05:49:06;;;;;;;16.33;5.90;;;1.80;99.90;;;;;;10306136;28;20224;-75
2022/01/21 05:54:08;;;;;;;15.17;5.87;;;1.70;99.90;;;;;;10311056;28;20320;-75
2022/01/21 05:59:09;;;;;;;10.93;5.30;;;1.70;99.90;;;;;;10310796;28;20222;-75
2022/01/21 06:04:10;;;;;;;14.67;7.43;;;1.50;99.90;;;;;;10315644;28;20232;-74
2022/01/21 06:09:10;;;;;;;64.57;30.07;;;1.20;99.90;;;;;;10324114;28;20624;-75
2022/01/21 06:14:11;;;;;;;65.47;30.37;;;1.10;99.90;;;;;;10318500;28;20237;-75
2022/01/21 06:19:11;;;;;;;111.43;37.03;;;1.00;99.90;;;;;;10321085;28;20230;-75
2022/01/21 06:24:12;;;;;;;70.93;29.83;;;1.00;99.90;;;;;;10315202;28;20381;-75
2022/01/21 06:29:13;;;;;;;42.93;18.20;;;1.00;99.90;;;;;;10309375;28;20251;-75
2022/01/21 06:34:17;;;;;;;24.70;9.40;;;1.00;99.90;;;;;;10314008;28;20661;-77
2022/01/21 06:39:17;;;;;;;16.43;7.73;;;1.10;99.90;;;;;;10302154;28;20223;-76
2022/01/21 06:44:19;;;;;;;18.63;7.80;;;1.30;99.90;;;;;;10311303;28;20234;-76
2022/01/21 06:49:20;;;;;;;19.40;7.87;;;1.40;99.90;;;;;;10320851;28;20226;-77
2022/01/21 06:54:22;;;;;;;12.43;6.77;;;1.60;99.90;;;;;;10322249;28;20717;-76
2022/01/21 06:59:22;;;;;;;11.73;6.47;;;1.60;99.90;;;;;;10306274;28;20221;-75
2022/01/21 07:04:23;;;;;;;14.60;6.40;;;1.70;99.90;;;;;;10298917;28;20233;-77
2022/01/21 07:09:25;;;;;;;14.83;7.03;;;1.80;99.90;;;;;;10297511;28;20320;-76
2022/01/21 07:14:27;;;;;;;18.97;7.73;;;1.80;99.90;;;;;;10318409;28;20229;-75
2022/01/21 07:19:27;;;;;;;11.93;5.97;;;1.90;99.90;;;;;;10307398;28;20698;-74
2022/01/21 07:24:28;;;;;;;14.43;6.93;;;1.90;99.90;;;;;;10301237;28;20223;-75
2022/01/21 07:29:28;;;;;;;16.00;6.70;;;2.00;99.90;;;;;;10325462;28;20236;-75
2022/01/21 07:34:29;;;;;;;15.57;6.67;;;2.00;99.90;;;;;;10306538;28;20214;-76
2022/01/21 07:39:32;;;;;;;11.27;6.60;;;2.00;99.90;;;;;;10323624;28;20546;-73
2022/01/21 07:44:33;;;;;;;17.23;6.97;;;2.10;99.90;;;;;;10297397;28;20733;-75
2022/01/21 07:49:34;;;;;;;12.47;6.20;;;2.10;99.90;;;;;;10314360;28;20233;-75
2022/01/21 07:54:34;;;;;;;15.83;6.60;;;2.20;99.90;;;;;;10324847;28;20716;-75
2022/01/21 07:59:36;;;;;;;12.97;6.90;;;2.30;99.90;;;;;;10314983;28;20229;-76
2022/01/21 08:04:36;;;;;;;13.50;7.33;;;2.40;99.90;;;;;;10293302;28;20246;-77
2022/01/21 08:09:37;;;;;;;16.43;7.27;;;2.50;99.90;;;;;;10309886;28;20263;-76
2022/01/21 08:14:38;;;;;;;13.10;7.07;;;2.60;99.90;;;;;;10312893;28;20222;-77
2022/01/21 08:19:44;;;;;;;15.03;7.03;;;2.70;99.90;;;;;;10309733;28;20230;-77
2022/01/21 08:24:48;;;;;;;13.93;7.30;;;2.80;99.90;;;;;;10313655;28;20643;-76
2022/01/21 08:29:50;;;;;;;16.57;7.23;;;2.90;99.90;;;;;;10304176;28;20292;-76
2022/01/21 08:34:50;;;;;;;16.30;7.47;;;2.90;99.90;;;;;;10298910;28;20230;-77
2022/01/21 08:39:51;;;;;;;12.83;6.23;;;3.00;99.90;;;;;;10305753;28;20244;-76
2022/01/21 08:44:51;;;;;;;11.93;6.60;;;3.40;99.90;;;;;;10313257;28;20302;-77
2022/01/21 08:49:53;;;;;;;12.33;6.33;;;3.70;99.90;;;;;;10296134;28;20237;-76
2022/01/21 08:54:54;;;;;;;16.70;7.50;;;3.90;99.90;;;;;;10311950;28;20301;-75
2022/01/21 08:59:55;;;;;;;17.97;8.70;;;4.00;99.90;;;;;;10312731;28;20241;-76
2022/01/21 09:04:55;;;;;;;14.50;6.73;;;4.20;99.90;;;;;;10293989;28;20231;-76
2022/01/21 09:09:56;;;;;;;15.23;6.40;;;4.70;99.90;;;;;;10300575;28;20227;-75
2022/01/21 09:14:57;;;;;;;14.30;5.63;;;5.80;99.90;;;;;;10295580;28;20750;-76
2022/01/21 09:19:57;;;;;;;15.03;6.50;;;7.60;99.90;;;;;;10315254;28;20232;-75
2022/01/21 09:24:58;;;;;;;9.87;6.73;;;8.20;99.90;;;;;;10317788;28;20218;-76
2022/01/21 09:29:58;;;;;;;16.50;6.90;;;8.10;99.90;;;;;;10314362;28;20592;-75
2022/01/21 09:34:59;;;;;;;14.23;6.57;;;7.50;99.90;;;;;;10292386;28;20215;-75
2022/01/21 09:40:00;;;;;;;16.23;6.63;;;6.80;99.90;;;;;;10314070;28;20221;-75
2022/01/21 09:45:07;;;;;;;17.60;7.43;;;6.30;99.90;;;;;;10298420;28;20561;-76
2022/01/21 09:50:08;;;;;;;16.20;6.87;;;6.00;99.90;;;;;;10298189;28;20322;-75
2022/01/21 09:55:09;;;;;;;14.90;6.63;;;5.90;99.90;;;;;;10308028;28;20277;-75
2022/01/21 10:00:10;;;;;;;14.23;6.87;;;5.90;99.90;;;;;;10297099;28;20198;-76
2022/01/21 10:05:11;;;;;;;16.83;6.80;;;6.10;99.90;;;;;;10290467;28;20560;-75
2022/01/21 10:10:11;;;;;;;19.27;6.80;;;6.70;99.90;;;;;;10313104;28;20213;-75
2022/01/21 10:15:13;;;;;;;13.27;6.33;;;7.40;99.90;;;;;;10305976;28;20198;-75
2022/01/21 10:20:16;;;;;;;13.33;6.03;;;7.80;99.90;;;;;;10296754;28;20217;-76
2022/01/21 10:25:17;;;;;;;13.10;6.17;;;9.00;99.90;;;;;;10305781;28;20190;-77
2022/01/21 10:30:24;;;;;;;15.53;5.63;;;9.10;99.90;;;;;;10304503;28;20576;-75
2022/01/21 10:35:31;;;;;;;10.50;5.13;;;8.20;99.90;;;;;;10305670;28;20308;-77
2022/01/21 10:40:35;;;;;;;10.70;4.73;;;7.40;99.90;;;;;;10290377;28;20308;-76
2022/01/21 10:45:56;;;;;;;11.87;4.83;;;7.00;99.90;;;;;;10294696;28;20645;-76
2022/01/21 10:51:15;;;;;;;14.63;4.83;;;6.70;99.90;;;;;;10296227;28;20234;-76
2022/01/21 10:56:17;;;;;;;11.03;5.03;;;6.40;99.90;;;;;;10296471;28;20230;-77
2022/01/21 11:01:22;;;;;;;11.57;4.47;;;6.20;99.90;;;;;;10314049;28;20285;-75
2022/01/21 11:06:26;;;;;;;14.17;5.30;;;6.00;99.90;;;;;;10290853;28;20698;-76
2022/01/21 11:11:26;;;;;;;9.40;4.37;;;5.80;99.90;;;;;;10310971;28;20306;-75
2022/01/21 11:16:34;;;;;;;9.67;4.47;;;5.90;99.90;;;;;;10314197;28;20253;-75
2022/01/21 11:21:51;;;;;;;12.03;4.13;;;6.20;99.90;;;;;;10312397;28;20229;-76
2022/01/21 11:27:14;;;;;;;14.00;4.80;;;7.10;99.90;;;;;;10308011;28;20223;-75
2022/01/21 11:32:16;;;;;;;10.03;4.80;;;7.70;99.90;;;;;;10317684;28;20223;-75
2022/01/21 11:37:17;;;;;;;14.57;4.50;;;7.60;99.90;;;;;;10294223;28;20592;-75
2022/01/21 11:42:18;;;;;;;9.00;4.20;;;7.40;99.90;;;;;;10300800;28;20635;-77
2022/01/21 11:47:48;;;;;;;17.77;4.37;;;7.40;99.90;;;;;;10311552;28;20248;-76
2022/01/21 11:52:49;;;;;;;9.87;3.77;;;7.40;99.90;;;;;;10296313;28;20215;-76
2022/01/21 11:58:09;;;;;;;10.97;3.70;;;7.50;99.90;;;;;;10313994;28;20224;-77
2022/01/21 12:03:10;;;;;;;10.53;4.13;;;7.60;99.90;;;;;;10316711;28;20315;-77
2022/01/21 12:08:10;;;;;;;9.60;4.20;;;7.30;99.90;;;;;;10298323;28;20320;-76
2022/01/21 12:13:19;;;;;;;12.40;4.57;;;7.10;99.90;;;;;;10293296;28;20599;-75
2022/01/21 12:24:00;;;;;;;12.67;3.87;;;6.90;99.90;;;;;;10312357;28;20233;-75
2022/01/21 12:29:00;;;;;;;10.73;3.87;;;6.70;99.90;;;;;;10320357;28;20258;-77
2022/01/21 12:34:08;;;;;;;9.53;3.90;;;6.50;99.90;;;;;;10304265;28;20239;-76
2022/01/21 12:39:42;;;;;;;17.27;4.63;;;6.20;99.90;;;;;;10304910;28;20698;-77
2022/01/21 12:44:43;;;;;;;8.20;3.63;;;6.30;99.90;;;;;;10317872;28;20249;-75
2022/01/21 12:49:51;;;;;;;10.00;3.57;;;6.70;99.90;;;;;;10311924;28;20232;-75
2022/01/21 13:00:12;;;;;;;13.90;4.10;;;6.70;99.90;;;;;;10316695;28;20226;-76
2022/01/21 13:05:18;;;;;;;12.07;3.40;;;6.90;99.90;;;;;;10312856;28;20634;-76
2022/01/21 13:10:24;;;;;;;12.63;3.37;;;7.10;99.90;;;;;;10298093;28;20401;-75
2022/01/21 13:15:43;;;;;;;10.17;3.13;;;7.00;99.90;;;;;;10302234;28;20297;-75
2022/01/21 13:20:47;;;;;;;9.13;3.10;;;7.00;99.90;;;;;;10308991;28;20225;-75
2022/01/21 13:25:48;;;;;;;9.07;3.03;;;6.80;99.90;;;;;;10313629;28;20269;-77
2022/01/21 13:30:49;;;;;;;9.33;2.93;;;6.60;99.90;;;;;;10321217;28;20579;-75
2022/01/21 13:35:49;;;;;;;8.07;2.50;;;6.50;99.90;;;;;;10305468;28;20215;-76
2022/01/21 13:40:53;;;;;;;6.87;2.90;;;6.40;99.90;;;;;;10297529;28;20222;-76
2022/01/21 13:46:00;;;;;;;14.43;3.17;;;6.40;99.90;;;;;;10305436;28;20222;-76
2022/01/21 13:51:04;;;;;;;9.33;2.80;;;6.30;99.90;;;;;;10309502;28;20234;-76
2022/01/21 13:56:08;;;;;;;7.07;2.93;;;6.20;99.90;;;;;;10315659;28;20595;-75
2022/01/21 14:01:13;;;;;;;9.20;2.73;;;6.10;99.90;;;;;;10312544;28;20223;-75
2022/01/21 14:06:27;;;;;;;9.20;2.60;;;5.90;99.90;;;;;;10313944;28;20224;-75
2022/01/21 14:11:47;;;;;;;6.57;2.40;;;5.80;99.90;;;;;;10306346;28;20333;-76
2022/01/21 14:16:51;;;;;;;9.10;3.30;;;5.60;99.90;;;;;;10311722;28;20225;-76
2022/01/21 14:22:02;;;;;;;8.63;3.00;;;5.60;99.90;;;;;;10299058;28;20234;-77
2022/01/21 14:27:03;;;;;;;6.53;2.93;;;5.60;99.90;;;;;;10293531;28;20599;-76
2022/01/21 14:32:23;;;;;;;11.30;2.93;;;5.50;99.90;;;;;;10307163;28;20277;-77
2022/01/21 14:37:23;;;;;;;6.37;2.43;;;5.50;99.90;;;;;;10287768;28;20222;-76
2022/01/21 14:42:27;;;;;;;5.63;2.63;;;5.40;99.90;;;;;;10311867;28;20218;-76
2022/01/21 14:47:32;;;;;;;8.60;3.27;;;5.50;99.90;;;;;;10289361;28;20222;-76
2022/01/21 14:52:50;;;;;;;8.50;3.40;;;5.60;99.90;;;;;;10312801;28;20222;-76
2022/01/21 14:58:01;;;;;;;7.40;2.90;;;5.60;99.90;;;;;;10305294;28;20573;-76
2022/01/21 15:03:14;;;;;;;9.80;3.10;;;5.60;99.90;;;;;;10310680;28;20305;-75
2022/01/21 15:08:33;;;;;;;9.53;4.00;;;5.60;99.90;;;;;;10304287;28;20218;-76
2022/01/21 15:18:54;;;;;;;5.17;2.57;;;5.60;99.90;;;;;;10308000;28;20233;-76
2022/01/21 15:23:56;;;;;;;8.07;3.03;;;5.50;99.90;;;;;;10319230;28;20694;-76
2022/01/21 15:29:07;;;;;;;8.00;3.30;;;5.50;99.90;;;;;;10314937;28;20222;-76
2022/01/21 15:34:08;;;;;;;8.00;2.60;;;5.40;99.90;;;;;;10304151;28;20249;-76
2022/01/21 15:39:09;;;;;;;9.00;2.60;;;5.40;99.90;;;;;;10310585;28;20229;-76
2022/01/21 15:44:10;;;;;;;5.60;2.80;;;5.40;99.90;;;;;;10302721;28;20717;-75
2022/01/21 15:49:12;;;;;;;6.83;2.37;;;5.30;99.90;;;;;;10292923;28;20693;-76
2022/01/21 15:54:13;;;;;;;7.70;2.60;;;5.20;99.90;;;;;;10306401;28;20218;-75
2022/01/21 15:59:17;;;;;;;7.43;2.60;;;5.20;99.90;;;;;;10311403;28;20268;-76
2022/01/21 16:04:19;;;;;;;4.87;2.10;;;5.20;99.90;;;;;;10305794;28;20219;-76
2022/01/21 16:09:20;;;;;;;10.57;2.27;;;5.20;99.90;;;;;;10293152;28;20809;-75
2022/01/21 16:14:21;;;;;;;5.43;1.80;;;5.20;99.90;;;;;;10308126;28;20215;-77
2022/01/21 16:19:22;;;;;;;6.67;2.03;;;5.10;99.90;;;;;;10318683;28;20226;-75
2022/01/21 16:24:23;;;;;;;6.20;1.90;;;5.10;99.90;;;;;;10317668;28;20231;-75
2022/01/21 16:29:24;;;;;;;5.73;1.97;;;5.10;99.90;;;;;;10309570;28;20710;-75
2022/01/21 16:34:24;;;;;;;6.60;1.80;;;5.10;99.90;;;;;;10317507;28;20210;-75
2022/01/21 16:39:25;;;;;;;6.77;1.90;;;5.10;99.90;;;;;;10285344;28;20225;-75
2022/01/21 16:44:30;;;;;;;5.87;2.70;;;5.10;99.90;;;;;;10310278;28;20224;-76
2022/01/21 16:49:30;;;;;;;5.93;2.37;;;5.10;99.90;;;;;;10316699;28;20681;-77
2022/01/21 16:54:31;;;;;;;5.90;2.57;;;5.10;99.90;;;;;;10310458;28;20254;-75
2022/01/21 16:59:31;;;;;;;5.50;2.20;;;5.10;99.90;;;;;;10306686;28;20229;-76
2022/01/21 17:04:32;;;;;;;7.57;2.53;;;5.10;99.90;;;;;;10324577;28;20312;-77
2022/01/21 17:09:33;;;;;;;4.23;2.00;;;5.00;99.90;;;;;;10312012;28;20232;-76
2022/01/21 17:14:34;;;;;;;5.50;2.00;;;5.10;99.90;;;;;;10307266;28;20210;-77
2022/01/21 17:19:35;;;;;;;4.23;2.07;;;5.10;99.90;;;;;;10298014;28;20229;-75
2022/01/21 17:24:39;;;;;;;9.20;2.60;;;5.10;99.90;;;;;;10322226;28;20309;-75
2022/01/21 17:35:39;;;;;;;7.43;2.97;;;5.10;99.90;;;;;;10309416;28;20742;-76
2022/01/21 17:40:43;;;;;;;21.60;16.33;;;5.00;99.90;;;;;;10320614;28;20321;-76
2022/01/21 17:45:43;;;;;;;9.63;3.30;;;5.00;99.90;;;;;;10309010;28;20224;-76
2022/01/21 17:50:44;;;;;;;7.60;3.10;;;5.00;99.90;;;;;;10316207;28;20232;-75
2022/01/21 17:55:45;;;;;;;4.70;2.70;;;5.00;99.90;;;;;;10319055;28;20731;-75
2022/01/21 18:00:46;;;;;;;3.17;2.07;;;5.00;99.90;;;;;;10291077;28;20231;-76
2022/01/21 18:12:13;;;;;;;6.30;2.77;;;5.00;99.90;;;;;;10243616;29;20235;-76
2022/01/21 18:17:14;;;;;;;5.70;2.03;;;5.00;99.90;;;;;;10302077;28;20862;-75
2022/01/21 18:22:22;;;;;;;7.33;2.57;;;5.00;99.90;;;;;;10296736;28;20205;-75
2022/01/21 18:28:14;;;;;;;6.60;2.20;;;5.00;99.90;;;;;;10312671;28;20705;-74
2022/01/21 18:33:38;;;;;;;4.17;2.23;;;5.00;99.90;;;;;;10253279;28;20217;-76
2022/01/21 18:39:35;;;;;;;5.60;2.10;;;5.00;99.90;;;;;;10310498;28;20221;-76
2022/01/21 18:44:36;;;;;;;3.90;1.87;;;5.00;99.90;;;;;;10282546;28;20313;-76
2022/01/21 18:50:02;;;;;;;;;;;;;;;;;;;;;
2022/01/21 18:56:07;;;;;;;;;;;;;;;;;;;;;
2022/01/21 19:01:08;;;;;;;7.20;2.87;;;5.00;99.90;;;;;;10316703;28;20609;-76
2022/01/21 19:06:20;;;;;;;5.27;2.90;;;5.00;99.90;;;;;;10301026;28;20213;-75
2022/01/21 19:11:33;;;;;;;5.40;2.73;;;5.00;99.90;;;;;;10315375;28;20234;-75
2022/01/21 19:16:39;;;;;;;5.73;3.00;;;5.10;99.90;;;;;;10303936;28;20227;-76
2022/01/21 19:21:51;;;;;;;7.87;3.03;;;5.00;99.90;;;;;;10320294;28;20261;-77
2022/01/21 19:31:58;;;;;;;4.60;2.67;;;5.10;99.90;;;;;;10325402;28;20347;-76
2022/01/21 19:37:00;;;;;;;4.90;2.90;;;5.10;99.90;;;;;;10295167;28;20225;-76
2022/01/21 19:42:28;;;;;;;6.33;2.30;;;5.10;99.90;;;;;;10326652;28;20244;-76
2022/01/21 19:47:43;;;;;;;6.50;2.57;;;5.10;99.90;;;;;;10311134;28;20290;-77
2022/01/21 19:52:44;;;;;;;4.57;2.60;;;5.10;99.90;;;;;;10311128;28;20716;-77
2022/01/21 19:57:48;;;;;;;4.90;2.60;;;5.10;99.90;;;;;;10305951;28;20257;-76
2022/01/21 20:13:16;;;;;;;4.67;2.73;;;5.20;99.90;;;;;;10319815;28;20370;-75
2022/01/21 20:18:20;;;;;;;3.63;3.13;;;5.20;99.90;;;;;;10302587;28;20622;-75
2022/01/21 20:23:22;;;;;;;4.70;3.10;;;5.20;99.90;;;;;;10311995;28;20357;-74
2022/01/21 20:28:23;;;;;;;6.63;3.10;;;5.20;99.90;;;;;;10303131;28;20234;-76
2022/01/21 20:33:25;;;;;;;6.87;3.03;;;5.20;99.90;;;;;;10302121;28;20226;-75
2022/01/21 20:38:27;;;;;;;6.43;3.20;;;5.20;99.90;;;;;;10303210;28;20254;-75
2022/01/21 20:43:27;;;;;;;7.00;3.67;;;5.30;99.90;;;;;;10301227;28;20702;-74
2022/01/21 20:48:31;;;;;;;7.30;3.90;;;5.30;99.90;;;;;;10323850;28;20300;-75
2022/01/21 20:53:32;;;;;;;6.27;3.97;;;5.30;99.90;;;;;;10318663;28;20308;-76
2022/01/21 20:58:37;;;;;;;6.07;3.77;;;5.30;99.90;;;;;;10294427;28;20230;-75
2022/01/21 21:03:38;;;;;;;7.27;4.90;;;5.30;99.90;;;;;;10317668;28;20229;-75
2022/01/21 21:08:38;;;;;;;10.57;4.23;;;5.30;99.90;;;;;;10312270;28;21158;-76
2022/01/21 21:13:40;;;;;;;6.43;4.40;;;5.30;99.90;;;;;;10306283;28;20225;-75
2022/01/21 21:21:02;;;;;;;13.63;7.03;;;5.30;99.90;;;;;;10328792;28;20210;-75
2022/01/21 21:24:19;;;;;;;5.63;4.70;;;5.40;99.90;;;;;;10310328;28;20286;-75
2022/01/21 23:04:20;;;;;;;8.17;6.53;;;5.50;99.90;;;;;;10296746;28;20280;-75
2022/01/21 23:09:21;;;;;;;10.47;7.17;;;5.50;99.90;;;;;;10317062;28;20316;-75
2022/01/21 23:14:26;;;;;;;8.30;6.40;;;5.50;99.90;;;;;;10319676;28;20614;-74
2022/01/21 23:19:26;;;;;;;12.03;7.53;;;5.50;99.90;;;;;;10318686;28;20760;-75
2022/01/21 23:24:28;;;;;;;10.83;6.80;;;5.50;99.90;;;;;;10328833;28;21035;-73
2022/01/21 23:29:29;;;;;;;10.70;7.57;;;5.50;99.90;;;;;;10316203;28;20241;-74
2022/01/21 23:34:37;;;;;;;9.87;7.07;;;5.60;99.90;;;;;;10324285;28;20703;-73
2022/01/21 23:40:21;;;;;;;11.40;6.80;;;5.60;99.90;;;;;;10314595;28;20233;-74
2022/01/21 23:45:02;;;;;;;10.27;7.40;;;5.60;99.90;;;;;;10324930;28;20234;-72
2022/01/21 23:50:13;;;;;;;8.80;7.17;;;5.50;99.90;;;;;;10327248;28;20230;-73
2022/01/21 23:55:15;;;;;;;12.13;7.70;;;5.60;99.90;;;;;;10315200;28;20576;-74
